Sarah Desgagnes — XJAB — position and weather

sailwx.info

Track history (hours):
 
Tides and Currents Weather Stations Pressure Air Temp Water Temp Dewpoint Dewpoint Depression Visibility Wind Speed Wind Dir Waves Ship Positions

Sarah Desgagnes

Last reported at 2018-Feb-23 22:00 UTC. Time now 2018-Feb-23 22:42 UTC.
Position N 45°36' W 073°30'.

Length 147 m; draft 5.7 m.

Type: Ship. MMSI: 316012308.

Wind from 160 at 8 knots

Air temperature 0.7 ° C
Dewpoint 0.9 ° C

Date/timePositionNaut miles runAvg speedWind from/ knotsBaromVisibWave heightAir tempDewpointWater temp
2018-Feb-23 22:00N 45°36' W 073°30'0 0.0 160 / 8 0.7 0.9
2018-Feb-23 21:00N 45°36' W 073°30'0 0.0 030 / 7 -1.7-1.5
2018-Feb-23 20:00N 45°36' W 073°30'0 0.0 040 / 10 -3.1-3.0
2018-Feb-23 19:00N 45°36' W 073°30'0 0.0 050 / 9 -3.7-3.6
2018-Feb-23 18:00N 45°36' W 073°30'0 0.0 050 / 11 -4.4-4.3
2018-Feb-23 17:00N 45°36' W 073°30'0 0.0 040 / 11 -5.6-5.6
2018-Feb-23 16:00N 45°36' W 073°30'0 0.0 040 / 10 -6.7-6.7
2018-Feb-23 14:00N 45°36' W 073°30'0 0.0 030 / 8 -8.4-8.3
2018-Feb-23 13:00N 45°36' W 073°30'810.9 040 / 10 -8.5-8.4 1.3
2018-Feb-23 12:15N 45°43' W 073°26'310.1
2018-Feb-23 12:00N 45°46' W 073°23'3283.9
2018-Feb-23 12:00N 45°48' W 073°24'4 8.3 020 / 8 -10.0-9.9 1.3
2018-Feb-23 11:31N 45°49' W 073°18'510.4
2018-Feb-23 11:01N 45°53' W 073°14'298.4
2018-Feb-23 11:00N 45°54' W 073°12'4 8.7 030 / 6 -9.9-9.8 1.3
2018-Feb-23 10:30N 45°58' W 073°12'15 9.6
2018-Feb-23 09:00N 46°06' W 072°54'7 7.3 040 / 2 -11.6-11.6 1.3
2018-Feb-23 08:00N 46°12' W 072°48'1010.2 110 / 3 -8.8-8.7 1.3
2018-Feb-23 07:00N 46°18' W 072°36'7 7.3 100 / 3 -10.6-10.5 1.3
2018-Feb-23 06:00N 46°24' W 072°30'1413.8 230 / 2 -9.7-9.7 1.4
2018-Feb-23 05:00N 46°30' W 072°12'7 7.3 190 / 2 -9.0-9.0 1.4
2018-Feb-23 04:00N 46°36' W 072°06'1413.7 240 / 4 -8.4-8.4 1.4
2018-Feb-23 03:00N 46°42' W 071°48'1212.3 310 / 5 -7.3-7.4 1.4
2018-Feb-23 02:00N 46°42' W 071°30'1413.7 300 / 13 -7.0-7.1 1.4
2018-Feb-23 01:00N 46°48' W 071°12'1413.7 250 / 131040.4 -6.2-6.3 1.5
2018-Feb-23 00:00N 46°54' W 070°54'7 7.3 220 / 141039.5 -6.1-6.2 1.4
2018-Feb-22 23:00N 47°00' W 070°48'1514.5 230 / 111038.9 -5.1-5.2 1.4
2018-Feb-22 22:00N 47°12' W 070°36'1414.5 220 / 121038.3 -4.0-4.1 1.3
2018-Feb-22 21:00N 47°24' W 070°24'1010.1 350 / 41038.7 -4.5-4.6 1.1
2018-Feb-22 20:00N 47°30' W 070°12'1414.5 210 / 131038.1 -5.6-5.7 1.3
2018-Feb-22 19:00N 47°42' W 070°00'1010.1 220 / 141038.1 -6.2-6.3 1.2
2018-Feb-22 18:00N 47°48' W 069°48'7 7.2 190 / 81039.3 -7.4-7.6 1.3
2018-Feb-22 17:00N 47°54' W 069°42'2713.4 210 / 141039.6 -7.3-7.4 1.3
2018-Feb-22 15:00N 48°18' W 069°24'1010.0 230 / 91039.8 -11.3-11.5 1.1
2018-Feb-22 14:00N 48°24' W 069°12'1716.9 260 / 61039.8 -11.2-11.3 0.3
2018-Feb-22 13:00N 48°36' W 068°54'1414.4 300 / 111039.4 -12.4-12.5 0.1
2018-Feb-22 12:00N 48°48' W 068°42'1313.3 310 / 131038.2 -12.6-12.8 0.2
2018-Feb-22 11:00N 48°54' W 068°24'1615.8 310 / 161037.2 -12.5-12.6-0.0
2018-Feb-22 10:00N 48°54' W 068°00'1716.8 310 / 171035.9 -12.5-12.7-0.0
2018-Feb-22 09:00N 49°06' W 067°42'1313.2 310 / 211034.6 -12.0-12.2-0.1
2018-Feb-22 08:00N 49°12' W 067°24'1313.2 310 / 241033.4 -12.5-12.6-0.2
2018-Feb-22 07:00N 49°18' W 067°06'1313.2 300 / 241030.3 -12.2-12.4-0.3
2018-Feb-22 06:00N 49°24' W 066°48'1716.7 300 / 241028.8 -11.3-11.4-0.3
2018-Feb-22 05:00N 49°30' W 066°24'8 7.8 300 / 251026.8 -10.7-10.9-0.3
2018-Feb-22 04:00N 49°30' W 066°12'1313.1 310 / 331023.7 -10.4-10.6-0.2
2018-Feb-22 03:00N 49°36' W 065°54'10 9.8 310 / 401019.9 -9.0-9.1-0.2
2018-Feb-22 02:00N 49°42' W 065°42'2311.4 300 / 431015.7 -6.7-6.8-0.2
2018-Feb-22 00:00N 49°30' W 065°12'1313.2 270 / 381006.6 -0.5-0.1-0.1
2018-Feb-21 23:00N 49°24' W 064°54'1313.2 160 / 51006.6 -2.1-1.7-0.1
2018-Feb-21 22:00N 49°18' W 064°36'1313.2 150 / 41007.4 -2.5-2.1-0.1
2018-Feb-21 21:00N 49°12' W 064°18'1716.8 100 / 61006.3 -2.1-1.7-0.2
2018-Feb-21 20:00N 49°06' W 063°54'8 7.9 130 / 101006.4 -2.2-1.8-0.2
2018-Feb-21 19:00N 49°06' W 063°42'1716.8 150 / 111006.6 -3.0-2.6-0.2
2018-Feb-21 18:00N 48°54' W 063°24'2110.3 140 / 91009.0 -3.0-2.6-0.1
2018-Feb-21 16:00N 48°48' W 062°54'10 9.9 140 / 81012.7 -2.9-2.6-0.2
2018-Feb-21 15:00N 48°42' W 062°42'1211.9 170 / 171014.4 -3.2-2.9-0.2
2018-Feb-21 14:00N 48°42' W 062°24'10 9.9 170 / 181017.3 -3.7-3.4-0.3
2018-Feb-21 13:00N 48°36' W 062°12'2713.4 150 / 221019.6 -5.0-4.7-0.3
2018-Feb-21 11:00N 48°24' W 061°36'1010.0 110 / 151025.4 -4.4-4.3-0.2
2018-Feb-21 10:00N 48°18' W 061°24'1717.1 090 / 201026.9 -5.2-5.1-0.3
2018-Feb-21 09:00N 48°12' W 061°00'1313.4 080 / 181028.5 -5.6-5.5-0.2
2018-Feb-21 08:00N 48°06' W 060°42'1313.4 080 / 161029.3 -5.6-5.5-0.2
2018-Feb-21 07:00N 48°00' W 060°24'1313.5 050 / 221029.2 -5.3-5.3 0.1
2018-Feb-21 06:00N 47°54' W 060°06'1010.0 040 / 261029.4 -4.7-4.7 0.6
2018-Feb-21 05:00N 47°48' W 059°54'1717.1 020 / 241029.8 -4.1-4.0 0.9
2018-Feb-21 04:00N 47°36' W 059°36'1414.5 020 / 141029.7 -4.0-3.9 0.2
2018-Feb-21 03:00N 47°24' W 059°24'1312.7 340 / 111029.2 -3.0-2.9-0.0
2018-Feb-21 02:00N 47°12' W 059°18'1312.7 020 / 111029.3 -1.9-1.7-0.1
2018-Feb-21 01:00N 47°00' W 059°12'1312.7 030 / 131028.9 -1.5-1.2-0.1
2018-Feb-21 00:00N 46°48' W 059°06'1010.2 010 / 111029.0 -0.9-0.5 0.1
2018-Feb-20 23:00N 46°42' W 059°18'1413.7 360 / 141028.5 -1.7-1.3-0.0
2018-Feb-20 22:00N 46°36' W 059°36'1717.2 350 / 131028.2 -1.4-1.0-0.2
2018-Feb-20 21:00N 46°24' W 059°54'1010.2 010 / 101027.2 -1.4-1.0-0.2
2018-Feb-20 20:00N 46°18' W 060°06'1312.7 020 / 91027.4 -0.7-0.3 0.2
2018-Feb-20 19:00N 46°06' W 060°12'0 0.0 340 / 81026.2 0.3 0.7
2018-Feb-20 17:00N 46°06' W 060°12'0 0.0 350 / 51025.5 3.6 4.1
2018-Feb-20 16:00N 46°06' W 060°12'0 0.0 1025.2 3.4 3.9
2018-Feb-20 15:00N 46°06' W 060°12'0 0.0 1025.5 2.9 3.5
2018-Feb-20 14:00N 46°06' W 060°12'0 0.0 210 / 21026.2 1.7 2.2
2018-Feb-20 13:00N 46°06' W 060°12'0 0.0 1026.0 1.7 2.2
2018-Feb-20 12:00N 46°06' W 060°12'0 0.0 170 / 51026.1 2.3 2.8
2018-Feb-20 11:00N 46°06' W 060°12'0 0.0 170 / 51026.2 2.3 2.8
2018-Feb-20 10:00N 46°06' W 060°12'0 0.0 180 / 21026.9 1.3 1.8
2018-Feb-20 09:00N 46°06' W 060°12'0 0.0 1027.0 0.2 0.7
2018-Feb-20 08:00N 46°06' W 060°12'0 0.0 210 / 11027.6 -0.5-0.0
2018-Feb-20 07:00N 46°06' W 060°12'0 0.0 180 / 81028.6 -0.9-0.5
2018-Feb-20 06:00N 46°06' W 060°12'0 0.0 190 / 61029.3 -0.5-0.2
2018-Feb-20 05:00N 46°06' W 060°12'0 0.0 220 / 41029.6 -1.1-0.9
2018-Feb-20 04:00N 46°06' W 060°12'6 6.0 210 / 91030.2 -1.7-1.4 0.4
2018-Feb-20 03:00N 46°12' W 060°12'1312.7 210 / 191029.4 -1.2-0.9 0.2
2018-Feb-20 02:00N 46°24' W 060°06'1312.7 210 / 161028.9 -0.7-0.4-0.0
2018-Feb-20 01:00N 46°36' W 060°12'1212.0 200 / 201028.6 -0.8-0.6-0.0
2018-Feb-20 00:00N 46°48' W 060°12'1212.0 180 / 161029.4 -1.3-1.1-0.1
2018-Feb-19 23:00N 47°00' W 060°12'1312.7 180 / 121029.7 -1.6-1.3-0.1
2018-Feb-19 22:00N 47°12' W 060°18'1212.0 150 / 91030.6 -2.7-2.5-0.1
2018-Feb-19 21:00N 47°24' W 060°18'1818.0 160 / 141030.2 -2.5-2.3-0.1
2018-Feb-19 20:00N 47°42' W 060°18'18 9.2 200 / 141031.2 -2.3-2.0 0.1
2018-Feb-19 18:00N 48°00' W 060°24'1010.0 200 / 191031.2 -3.5-3.1-0.1
2018-Feb-19 17:00N 48°06' W 060°36'1313.4 200 / 171032.0 -4.7-4.4-0.1
2018-Feb-19 16:00N 48°12' W 060°54'1313.4 220 / 161032.9 -4.6-4.3-0.0
2018-Feb-19 15:00N 48°18' W 061°12'1313.4 210 / 151033.0 -4.8-4.6-0.1
2018-Feb-19 14:00N 48°24' W 061°30'1313.4 210 / 111032.4 -6.3-6.1-0.2
2018-Feb-19 13:00N 48°30' W 061°48'1313.3 210 / 91032.0 -6.6-6.4-0.2
2018-Feb-19 12:00N 48°36' W 062°06'1313.3 220 / 81031.2 -6.0-5.7-0.2
2018-Feb-19 11:00N 48°42' W 062°24'1313.3 250 / 71030.4 -5.8-5.6-0.2
2018-Feb-19 10:00N 48°48' W 062°42'8 7.9 260 / 111030.0 -4.7-4.5-0.0
2018-Feb-19 09:00N 48°48' W 062°54'1313.3 240 / 91029.5 -4.8-4.6-0.2
2018-Feb-19 08:00N 48°54' W 063°12'1313.3 230 / 101028.7 -4.6-4.4-0.2
2018-Feb-19 07:00N 49°00' W 063°30'1313.2 230 / 91028.0 -4.5-4.3-0.2
2018-Feb-19 06:00N 49°06' W 063°48'1313.2 200 / 101027.0 -4.1-3.9-0.2
2018-Feb-19 05:00N 49°12' W 064°06'1313.2 230 / 71026.9 -4.0-3.9-0.2
2018-Feb-19 04:00N 49°18' W 064°24'1313.2 260 / 81026.3 -3.6-3.4-0.2
2018-Feb-19 03:00N 49°24' W 064°42'1716.7 280 / 171025.4 -2.3-2.1-0.2
2018-Feb-19 02:00N 49°30' W 065°06'1313.1 260 / 101023.8 -3.7-3.5-0.2
2018-Feb-19 01:00N 49°36' W 065°24'1313.1 270 / 51023.0 -3.6-3.4 0.1
2018-Feb-19 00:00N 49°42' W 065°42'10 9.8 270 / 31021.8 -4.2-4.0-0.2
2018-Feb-18 23:00N 49°48' W 065°54'1313.1 250 / 51020.4 -4.0-3.9-0.2
2018-Feb-18 22:00N 49°54' W 066°12'2019.6 250 / 61019.5 -4.5-4.4-0.2
2018-Feb-18 21:00N 50°12' W 066°24'0 0.0 190 / 51018.5 -4.8-4.7-0.1
2018-Feb-18 19:00N 50°12' W 066°24'0 0.0 140 / 21017.0 -3.5-3.5
2018-Feb-18 18:00N 50°12' W 066°24'0 0.0 120 / 71016.8 -5.0-4.9
2018-Feb-18 17:00N 50°12' W 066°24'0 0.0 110 / 41016.7 -2.9-2.8
2018-Feb-18 16:00N 50°12' W 066°24'0 0.0 100 / 11016.9 -3.8-3.8
2018-Feb-18 15:00N 50°12' W 066°24'0 0.0 090 / 31016.7 -4.7-4.7
2018-Feb-18 14:00N 50°12' W 066°24'0 0.0 070 / 51016.7 -8.5-8.5
2018-Feb-18 13:00N 50°12' W 066°24'0 0.0 090 / 21016.6 -8.4-8.4
2018-Feb-18 12:00N 50°12' W 066°24'0 0.0 080 / 51016.4 -9.6-9.6
2018-Feb-18 11:00N 50°12' W 066°24'0 0.0 080 / 51016.2 -9.2-9.2
2018-Feb-18 10:00N 50°12' W 066°24'0 0.0 090 / 41016.2 -8.9-9.0
2018-Feb-18 09:00N 50°12' W 066°24'0 0.0 070 / 71016.4 -10.1-10.2
2018-Feb-18 08:00N 50°12' W 066°24'0 0.0 070 / 81016.9 -10.8-10.8
2018-Feb-18 07:00N 50°12' W 066°24'7 7.1 060 / 131017.7 -12.4-12.5 0.7
2018-Feb-18 06:00N 50°06' W 066°18'1313.0 110 / 161017.7 -8.1-8.2-0.1
2018-Feb-18 05:00N 50°00' W 066°36'8 7.7 120 / 171018.2 -8.2-8.4-0.3
2018-Feb-18 04:00N 50°00' W 066°48'0 0.0 040 / 71020.1 -12.1-12.2-0.2
2018-Feb-18 03:00N 50°00' W 066°48'0 0.0 070 / 51021.1 -12.5-12.7
2018-Feb-18 01:00N 50°00' W 066°48'0 0.0 060 / 41021.8 -12.5-13.0
2018-Feb-18 00:00N 50°00' W 066°48'0 0.0 040 / 21022.5 -12.2-13.2
2018-Feb-17 23:00N 50°00' W 066°48'0 0.0 010 / 11023.1 -11.4-12.3
2018-Feb-17 22:00N 50°00' W 066°48'0 0.0 270 / 21023.4 -9.9-10.9
2018-Feb-17 20:00N 50°00' W 066°48'0 0.0 260 / 31023.6 -9.3-10.1
2018-Feb-17 19:00N 50°00' W 066°48'0 0.0 200 / 11023.7 -10.8-13.0
2018-Feb-17 18:00N 50°00' W 066°48'0 0.0 180 / 11023.9 -11.2-13.4
2018-Feb-17 17:00N 50°00' W 066°48'0 0.0 270 / 11024.2 -12.6-14.8
2018-Feb-17 16:00N 50°00' W 066°48'0 0.0 290 / 51024.9 -15.3-18.2
2018-Feb-17 15:00N 50°00' W 066°48'0 0.0 290 / 61025.2 -16.8-19.3
2018-Feb-17 14:00N 50°00' W 066°48'0 0.0 260 / 31024.9 -16.4-17.8
2018-Feb-17 13:00N 50°00' W 066°48'0 0.0 250 / 41024.3 -17.2-17.3
2018-Feb-17 12:00N 50°00' W 066°48'0 0.0 260 / 31023.1 -19.1-19.7
2018-Feb-17 11:00N 50°00' W 066°48'0 0.0 250 / 31021.5 -17.6-18.5
2018-Feb-17 10:00N 50°00' W 066°48'0 0.0 260 / 51019.7 -17.6-18.2
2018-Feb-17 09:00N 50°00' W 066°48'6 6.0 300 / 91017.2 -19.0-21.8 0.1
2018-Feb-17 08:00N 49°54' W 066°48'0 0.0 310 / 151016.2 -17.6-20.5
2018-Feb-17 07:00N 49°54' W 066°48'0 0.0 300 / 151014.9 -16.5-19.1
2018-Feb-17 06:00N 49°54' W 066°48'0 0.0 320 / 141013.1 -15.9-18.1
2018-Feb-17 05:00N 49°54' W 066°48'0 0.0 310 / 241010.9 -15.0-16.5
2018-Feb-17 04:00N 49°54' W 066°48'0 0.0 310 / 181009.4 -14.0-14.9
2018-Feb-17 02:00N 49°54' W 066°48'0 0.0 320 / 131006.9 -12.2-12.3-0.1
2018-Feb-17 01:00N 49°54' W 066°48'7 7.1 330 / 231004.9 -10.4-10.8-0.1
2018-Feb-17 00:00N 49°48' W 066°54'1212.0 330 / 251002.7 -8.8-9.1-0.0
2018-Feb-16 23:00N 49°36' W 066°54'2914.3 310 / 231001.5 -6.6-6.7-0.0
2018-Feb-16 21:00N 49°12' W 067°18'1313.2 290 / 221001.4 -5.7-5.7 0.3
2018-Feb-16 20:00N 49°06' W 067°36'1313.2 300 / 181001.2 -5.1-5.2 0.2
2018-Feb-16 19:00N 49°00' W 067°54'2713.3 290 / 211000.5 -5.3-5.2 0.3
2018-Feb-16 17:00N 48°48' W 068°30'10 9.9 320 / 161000.5 -5.0-4.9 0.5
2018-Feb-16 16:00N 48°42' W 068°42'10 9.9 320 / 181000.4 -4.1-4.0 0.8
2018-Feb-16 15:00N 48°36' W 068°54'1716.9 320 / 171001.1 -3.9-3.8 0.9
2018-Feb-16 14:00N 48°24' W 069°12'1010.0 330 / 151002.5 -3.4-3.3 0.9
2018-Feb-16 13:00N 48°18' W 069°24'1414.4 280 / 231001.8 -4.0-3.8 1.2
2018-Feb-16 12:00N 48°06' W 069°36'1414.4 280 / 261001.5 -3.3-3.1 1.8
2018-Feb-16 11:00N 47°54' W 069°48'1312.7 320 / 15999.6 0.6 0.8 0.8
2018-Feb-16 10:00N 47°42' W 069°54'1414.5 320 / 13999.2 2.1 2.4 0.9
2018-Feb-16 09:00N 47°30' W 070°06'1413.6 330 / 7998.7 2.3 2.7 1.2
2018-Feb-16 08:00N 47°24' W 070°24'7 7.2 190 / 2998.0 2.9 3.4 1.0
2018-Feb-16 07:00N 47°18' W 070°30'1010.1 200 / 15997.8 4.3 4.9 1.0
2018-Feb-16 06:00N 47°12' W 070°42'1818.5 220 / 26998.0 3.3 3.8 1.3
2018-Feb-16 05:00N 46°54' W 070°48'17 8.7 220 / 15999.0 2.1 2.7 1.3
2018-Feb-16 03:00N 46°48' W 071°12'0 0.0 240 / 13999.1 2.2 2.8
2018-Feb-16 02:00N 46°48' W 071°12'0 0.0 230 / 12999.3 1.4 2.0
2018-Feb-16 01:00N 46°48' W 071°12'0 0.0 240 / 10999.3 1.7 2.4
2018-Feb-16 00:00N 46°48' W 071°12'0 0.0 250 / 17998.8 2.3 2.9
2018-Feb-15 22:00N 46°48' W 071°12'0 0.0 180 / 1998.5 1.2 1.7
2018-Feb-15 21:00N 46°48' W 071°12'0 0.0 999.5 1.8 2.3
2018-Feb-15 20:00N 46°48' W 071°12'0 0.0 1000.8 0.8 1.3
2018-Feb-15 19:00N 46°48' W 071°12'0 0.0 080 / 11001.9 1.7 2.1
2018-Feb-15 18:00N 46°48' W 071°12'0 0.0 040 / 41003.4 2.9 3.3
2018-Feb-15 17:00N 46°48' W 071°12'0 0.0 060 / 11005.8 0.9 1.4
2018-Feb-15 16:00N 46°48' W 071°12'0 0.0 1006.9 0.5 0.9
2018-Feb-15 15:00N 46°48' W 071°12'0 0.0 280 / 11008.4 0.4 0.8
2018-Feb-15 14:00N 46°48' W 071°12'0 0.0 210 / 11008.7 -0.5-0.0
2018-Feb-15 13:00N 46°48' W 071°12'0 0.0 260 / 21009.4 -1.6-1.2
2018-Feb-15 12:00N 46°48' W 071°12'0 0.0 170 / 11009.2 -1.9-1.5
2018-Feb-15 11:00N 46°48' W 071°12'0 0.0 150 / 31009.7 -1.4-1.0
2018-Feb-15 10:00N 46°48' W 071°12'0 0.0 210 / 21010.4 -2.1-1.7
2018-Feb-15 09:00N 46°48' W 071°12'0 0.0 230 / 31010.5 -1.9-1.5
2018-Feb-15 08:00N 46°48' W 071°12'0 0.0 1011.0 -1.0-0.6
2018-Feb-15 07:00N 46°48' W 071°12'0 0.0 1011.8 -0.4-0.1
2018-Feb-15 06:00N 46°48' W 071°12'0 0.0 230 / 41011.7 -0.1 0.3
2018-Feb-15 04:00N 46°48' W 071°12'0 0.0 240 / 41012.0 0.1 0.5
2018-Feb-15 03:00N 46°48' W 071°12'0 0.0 1011.8 0.3 0.7
2018-Feb-15 02:00N 46°48' W 071°12'0 0.0 240 / 31011.8 0.4 0.8
2018-Feb-15 01:00N 46°48' W 071°12'0 0.0 220 / 81011.5 1.5 1.8
2018-Feb-15 00:00N 46°48' W 071°12'0 0.0 220 / 91011.3 2.0 2.3
2018-Feb-14 23:00N 46°48' W 071°12'0 0.0 240 / 101011.6 2.4 2.7
2018-Feb-14 22:00N 46°48' W 071°12'0 0.0 240 / 101012.2 2.3 2.5
2018-Feb-14 21:00N 46°48' W 071°12'0 0.0 220 / 111012.3 0.6 0.9
2018-Feb-14 20:00N 46°48' W 071°12'0 0.0 210 / 71012.8 -1.2-1.0
2018-Feb-14 19:00N 46°48' W 071°12'0 0.0 220 / 61013.8 -2.1-1.9
2018-Feb-14 18:00N 46°48' W 071°12'0 0.0 220 / 101014.9 -3.4-3.3
2018-Feb-14 17:00N 46°48' W 071°12'0 0.0 210 / 91016.5 -4.6-4.5
2018-Feb-14 16:00N 46°48' W 071°12'0 0.0 230 / 91017.4 -5.8-5.7
2018-Feb-14 15:00N 46°48' W 071°12'0 0.0 200 / 51018.7 -7.0-7.0
2018-Feb-14 14:00N 46°48' W 071°12'0 0.0 210 / 51019.2 -8.9-9.0
2018-Feb-14 13:00N 46°48' W 071°12'0 0.0 220 / 41019.7 -10.0-10.0
2018-Feb-14 12:00N 46°48' W 071°12'0 0.0 190 / 21020.2 -10.4-10.4
2018-Feb-14 11:00N 46°48' W 071°12'0 0.0 220 / 51021.2 -10.0-10.0 1.6
2018-Feb-14 10:00N 46°48' W 071°12'0 0.0 250 / 21022.2 -9.9-9.9
2018-Feb-14 07:00N 46°48' W 071°12'0 0.0 260 / 21026.4 -9.6-9.6
2018-Feb-14 05:00N 46°48' W 071°12'0 0.0 280 / 21029.5 -8.9-8.9
2018-Feb-14 04:00N 46°48' W 071°12'4 4.1 290 / 41030.6 -8.2-8.3 1.5
2018-Feb-14 03:00N 46°48' W 071°06'1010.2 230 / 71031.5 -8.7-8.7 1.4
2018-Feb-14 02:00N 46°54' W 070°54'7 7.3 240 / 151032.6 -8.2-8.2 1.5
2018-Feb-14 01:00N 47°00' W 070°48'1514.5 250 / 181032.8 -7.7-7.7 1.5
2018-Feb-14 00:00N 47°12' W 070°36'7 7.3 230 / 201033.3 -7.2-7.2 1.1
2018-Feb-13 23:00N 47°18' W 070°30'1414.5 230 / 271033.7 -7.2-7.3 1.0
2018-Feb-13 22:00N 47°30' W 070°18'   230 / 221033.7 -7.5-7.6 1.0
Track history (hours):
 
Tides and Currents Weather Stations Pressure Air Temp Water Temp Dewpoint Dewpoint Depression Visibility Wind Speed Wind Dir Waves Ship Positions

Sarah Desgagnes

Last reported at 2018-Feb-23 22:00 UTC. Time now 2018-Feb-23 22:42 UTC.
Position N 45°36' W 073°30'.

Length 147 m; draft 5.7 m.

Type: Ship. MMSI: 316012308.

Wind from 160 at 8 knots

Air temperature 0.7 ° C
Dewpoint 0.9 ° C

Date/timePositionNaut miles runAvg speedWind from/ knotsBaromVisibWave heightAir tempDewpointWater temp
2018-Feb-23 22:00N 45°36' W 073°30'0 0.0 160 / 8 0.7 0.9
2018-Feb-23 21:00N 45°36' W 073°30'0 0.0 030 / 7 -1.7-1.5
2018-Feb-23 20:00N 45°36' W 073°30'0 0.0 040 / 10 -3.1-3.0
2018-Feb-23 19:00N 45°36' W 073°30'0 0.0 050 / 9 -3.7-3.6
2018-Feb-23 18:00N 45°36' W 073°30'0 0.0 050 / 11 -4.4-4.3
2018-Feb-23 17:00N 45°36' W 073°30'0 0.0 040 / 11 -5.6-5.6
2018-Feb-23 16:00N 45°36' W 073°30'0 0.0 040 / 10 -6.7-6.7
2018-Feb-23 14:00N 45°36' W 073°30'0 0.0 030 / 8 -8.4-8.3
2018-Feb-23 13:00N 45°36' W 073°30'810.9 040 / 10 -8.5-8.4 1.3
2018-Feb-23 12:15N 45°43' W 073°26'310.1
2018-Feb-23 12:00N 45°46' W 073°23'3283.9
2018-Feb-23 12:00N 45°48' W 073°24'4 8.3 020 / 8 -10.0-9.9 1.3
2018-Feb-23 11:31N 45°49' W 073°18'510.4
2018-Feb-23 11:01N 45°53' W 073°14'298.4
2018-Feb-23 11:00N 45°54' W 073°12'4 8.7 030 / 6 -9.9-9.8 1.3
2018-Feb-23 10:30N 45°58' W 073°12'15 9.6
2018-Feb-23 09:00N 46°06' W 072°54'7 7.3 040 / 2 -11.6-11.6 1.3
2018-Feb-23 08:00N 46°12' W 072°48'1010.2 110 / 3 -8.8-8.7 1.3
2018-Feb-23 07:00N 46°18' W 072°36'7 7.3 100 / 3 -10.6-10.5 1.3
2018-Feb-23 06:00N 46°24' W 072°30'1413.8 230 / 2 -9.7-9.7 1.4
2018-Feb-23 05:00N 46°30' W 072°12'7 7.3 190 / 2 -9.0-9.0 1.4
2018-Feb-23 04:00N 46°36' W 072°06'1413.7 240 / 4 -8.4-8.4 1.4
2018-Feb-23 03:00N 46°42' W 071°48'1212.3 310 / 5 -7.3-7.4 1.4
2018-Feb-23 02:00N 46°42' W 071°30'1413.7 300 / 13 -7.0-7.1 1.4
2018-Feb-23 01:00N 46°48' W 071°12'1413.7 250 / 131040.4 -6.2-6.3 1.5
2018-Feb-23 00:00N 46°54' W 070°54'7 7.3 220 / 141039.5 -6.1-6.2 1.4
2018-Feb-22 23:00N 47°00' W 070°48'1514.5 230 / 111038.9 -5.1-5.2 1.4
2018-Feb-22 22:00N 47°12' W 070°36'1414.5 220 / 121038.3 -4.0-4.1 1.3
2018-Feb-22 21:00N 47°24' W 070°24'1010.1 350 / 41038.7 -4.5-4.6 1.1
2018-Feb-22 20:00N 47°30' W 070°12'1414.5 210 / 131038.1 -5.6-5.7 1.3
2018-Feb-22 19:00N 47°42' W 070°00'1010.1 220 / 141038.1 -6.2-6.3 1.2
2018-Feb-22 18:00N 47°48' W 069°48'7 7.2 190 / 81039.3 -7.4-7.6 1.3
2018-Feb-22 17:00N 47°54' W 069°42'2713.4 210 / 141039.6 -7.3-7.4 1.3
2018-Feb-22 15:00N 48°18' W 069°24'1010.0 230 / 91039.8 -11.3-11.5 1.1
2018-Feb-22 14:00N 48°24' W 069°12'1716.9 260 / 61039.8 -11.2-11.3 0.3
2018-Feb-22 13:00N 48°36' W 068°54'1414.4 300 / 111039.4 -12.4-12.5 0.1
2018-Feb-22 12:00N 48°48' W 068°42'1313.3 310 / 131038.2 -12.6-12.8 0.2
2018-Feb-22 11:00N 48°54' W 068°24'1615.8 310 / 161037.2 -12.5-12.6-0.0
2018-Feb-22 10:00N 48°54' W 068°00'1716.8 310 / 171035.9 -12.5-12.7-0.0
2018-Feb-22 09:00N 49°06' W 067°42'1313.2 310 / 211034.6 -12.0-12.2-0.1
2018-Feb-22 08:00N 49°12' W 067°24'1313.2 310 / 241033.4 -12.5-12.6-0.2
2018-Feb-22 07:00N 49°18' W 067°06'1313.2 300 / 241030.3 -12.2-12.4-0.3
2018-Feb-22 06:00N 49°24' W 066°48'1716.7 300 / 241028.8 -11.3-11.4-0.3
2018-Feb-22 05:00N 49°30' W 066°24'8 7.8 300 / 251026.8 -10.7-10.9-0.3
2018-Feb-22 04:00N 49°30' W 066°12'1313.1 310 / 331023.7 -10.4-10.6-0.2
2018-Feb-22 03:00N 49°36' W 065°54'10 9.8 310 / 401019.9 -9.0-9.1-0.2
2018-Feb-22 02:00N 49°42' W 065°42'2311.4 300 / 431015.7 -6.7-6.8-0.2
2018-Feb-22 00:00N 49°30' W 065°12'1313.2 270 / 381006.6 -0.5-0.1-0.1
2018-Feb-21 23:00N 49°24' W 064°54'1313.2 160 / 51006.6 -2.1-1.7-0.1
2018-Feb-21 22:00N 49°18' W 064°36'1313.2 150 / 41007.4 -2.5-2.1-0.1
2018-Feb-21 21:00N 49°12' W 064°18'1716.8 100 / 61006.3 -2.1-1.7-0.2
2018-Feb-21 20:00N 49°06' W 063°54'8 7.9 130 / 101006.4 -2.2-1.8-0.2
2018-Feb-21 19:00N 49°06' W 063°42'1716.8 150 / 111006.6 -3.0-2.6-0.2
2018-Feb-21 18:00N 48°54' W 063°24'2110.3 140 / 91009.0 -3.0-2.6-0.1
2018-Feb-21 16:00N 48°48' W 062°54'10 9.9 140 / 81012.7 -2.9-2.6-0.2
2018-Feb-21 15:00N 48°42' W 062°42'1211.9 170 / 171014.4 -3.2-2.9-0.2
2018-Feb-21 14:00N 48°42' W 062°24'10 9.9 170 / 181017.3 -3.7-3.4-0.3
2018-Feb-21 13:00N 48°36' W 062°12'2713.4 150 / 221019.6 -5.0-4.7-0.3
2018-Feb-21 11:00N 48°24' W 061°36'1010.0 110 / 151025.4 -4.4-4.3-0.2
2018-Feb-21 10:00N 48°18' W 061°24'1717.1 090 / 201026.9 -5.2-5.1-0.3
2018-Feb-21 09:00N 48°12' W 061°00'1313.4 080 / 181028.5 -5.6-5.5-0.2
2018-Feb-21 08:00N 48°06' W 060°42'1313.4 080 / 161029.3 -5.6-5.5-0.2
2018-Feb-21 07:00N 48°00' W 060°24'1313.5 050 / 221029.2 -5.3-5.3 0.1
2018-Feb-21 06:00N 47°54' W 060°06'1010.0 040 / 261029.4 -4.7-4.7 0.6
2018-Feb-21 05:00N 47°48' W 059°54'1717.1 020 / 241029.8 -4.1-4.0 0.9
2018-Feb-21 04:00N 47°36' W 059°36'1414.5 020 / 141029.7 -4.0-3.9 0.2
2018-Feb-21 03:00N 47°24' W 059°24'1312.7 340 / 111029.2 -3.0-2.9-0.0
2018-Feb-21 02:00N 47°12' W 059°18'1312.7 020 / 111029.3 -1.9-1.7-0.1
2018-Feb-21 01:00N 47°00' W 059°12'1312.7 030 / 131028.9 -1.5-1.2-0.1
2018-Feb-21 00:00N 46°48' W 059°06'1010.2 010 / 111029.0 -0.9-0.5 0.1
2018-Feb-20 23:00N 46°42' W 059°18'1413.7 360 / 141028.5 -1.7-1.3-0.0
2018-Feb-20 22:00N 46°36' W 059°36'1717.2 350 / 131028.2 -1.4-1.0-0.2
2018-Feb-20 21:00N 46°24' W 059°54'1010.2 010 / 101027.2 -1.4-1.0-0.2
2018-Feb-20 20:00N 46°18' W 060°06'1312.7 020 / 91027.4 -0.7-0.3 0.2
2018-Feb-20 19:00N 46°06' W 060°12'0 0.0 340 / 81026.2 0.3 0.7
2018-Feb-20 17:00N 46°06' W 060°12'0 0.0 350 / 51025.5 3.6 4.1
2018-Feb-20 16:00N 46°06' W 060°12'0 0.0 1025.2 3.4 3.9
2018-Feb-20 15:00N 46°06' W 060°12'0 0.0 1025.5 2.9 3.5
2018-Feb-20 14:00N 46°06' W 060°12'0 0.0 210 / 21026.2 1.7 2.2
2018-Feb-20 13:00N 46°06' W 060°12'0 0.0 1026.0 1.7 2.2
2018-Feb-20 12:00N 46°06' W 060°12'0 0.0 170 / 51026.1 2.3 2.8
2018-Feb-20 11:00N 46°06' W 060°12'0 0.0 170 / 51026.2 2.3 2.8
2018-Feb-20 10:00N 46°06' W 060°12'0 0.0 180 / 21026.9 1.3 1.8
2018-Feb-20 09:00N 46°06' W 060°12'0 0.0 1027.0 0.2 0.7
2018-Feb-20 08:00N 46°06' W 060°12'0 0.0 210 / 11027.6 -0.5-0.0
2018-Feb-20 07:00N 46°06' W 060°12'0 0.0 180 / 81028.6 -0.9-0.5
2018-Feb-20 06:00N 46°06' W 060°12'0 0.0 190 / 61029.3 -0.5-0.2
2018-Feb-20 05:00N 46°06' W 060°12'0 0.0 220 / 41029.6 -1.1-0.9
2018-Feb-20 04:00N 46°06' W 060°12'6 6.0 210 / 91030.2 -1.7-1.4 0.4
2018-Feb-20 03:00N 46°12' W 060°12'1312.7 210 / 191029.4 -1.2-0.9 0.2
2018-Feb-20 02:00N 46°24' W 060°06'1312.7 210 / 161028.9 -0.7-0.4-0.0
2018-Feb-20 01:00N 46°36' W 060°12'1212.0 200 / 201028.6 -0.8-0.6-0.0
2018-Feb-20 00:00N 46°48' W 060°12'1212.0 180 / 161029.4 -1.3-1.1-0.1
2018-Feb-19 23:00N 47°00' W 060°12'1312.7 180 / 121029.7 -1.6-1.3-0.1
2018-Feb-19 22:00N 47°12' W 060°18'1212.0 150 / 91030.6 -2.7-2.5-0.1
2018-Feb-19 21:00N 47°24' W 060°18'1818.0 160 / 141030.2 -2.5-2.3-0.1
2018-Feb-19 20:00N 47°42' W 060°18'18 9.2 200 / 141031.2 -2.3-2.0 0.1
2018-Feb-19 18:00N 48°00' W 060°24'1010.0 200 / 191031.2 -3.5-3.1-0.1
2018-Feb-19 17:00N 48°06' W 060°36'1313.4 200 / 171032.0 -4.7-4.4-0.1
2018-Feb-19 16:00N 48°12' W 060°54'1313.4 220 / 161032.9 -4.6-4.3-0.0
2018-Feb-19 15:00N 48°18' W 061°12'1313.4 210 / 151033.0 -4.8-4.6-0.1
2018-Feb-19 14:00N 48°24' W 061°30'1313.4 210 / 111032.4 -6.3-6.1-0.2
2018-Feb-19 13:00N 48°30' W 061°48'1313.3 210 / 91032.0 -6.6-6.4-0.2
2018-Feb-19 12:00N 48°36' W 062°06'1313.3 220 / 81031.2 -6.0-5.7-0.2
2018-Feb-19 11:00N 48°42' W 062°24'1313.3 250 / 71030.4 -5.8-5.6-0.2
2018-Feb-19 10:00N 48°48' W 062°42'8 7.9 260 / 111030.0 -4.7-4.5-0.0
2018-Feb-19 09:00N 48°48' W 062°54'1313.3 240 / 91029.5 -4.8-4.6-0.2
2018-Feb-19 08:00N 48°54' W 063°12'1313.3 230 / 101028.7 -4.6-4.4-0.2
2018-Feb-19 07:00N 49°00' W 063°30'1313.2 230 / 91028.0 -4.5-4.3-0.2
2018-Feb-19 06:00N 49°06' W 063°48'1313.2 200 / 101027.0 -4.1-3.9-0.2
2018-Feb-19 05:00N 49°12' W 064°06'1313.2 230 / 71026.9 -4.0-3.9-0.2
2018-Feb-19 04:00N 49°18' W 064°24'1313.2 260 / 81026.3 -3.6-3.4-0.2
2018-Feb-19 03:00N 49°24' W 064°42'1716.7 280 / 171025.4 -2.3-2.1-0.2
2018-Feb-19 02:00N 49°30' W 065°06'1313.1 260 / 101023.8 -3.7-3.5-0.2
2018-Feb-19 01:00N 49°36' W 065°24'1313.1 270 / 51023.0 -3.6-3.4 0.1
2018-Feb-19 00:00N 49°42' W 065°42'10 9.8 270 / 31021.8 -4.2-4.0-0.2
2018-Feb-18 23:00N 49°48' W 065°54'1313.1 250 / 51020.4 -4.0-3.9-0.2
2018-Feb-18 22:00N 49°54' W 066°12'2019.6 250 / 61019.5 -4.5-4.4-0.2
2018-Feb-18 21:00N 50°12' W 066°24'0 0.0 190 / 51018.5 -4.8-4.7-0.1
2018-Feb-18 19:00N 50°12' W 066°24'0 0.0 140 / 21017.0 -3.5-3.5
2018-Feb-18 18:00N 50°12' W 066°24'0 0.0 120 / 71016.8 -5.0-4.9
2018-Feb-18 17:00N 50°12' W 066°24'0 0.0 110 / 41016.7 -2.9-2.8
2018-Feb-18 16:00N 50°12' W 066°24'0 0.0 100 / 11016.9 -3.8-3.8
2018-Feb-18 15:00N 50°12' W 066°24'0 0.0 090 / 31016.7 -4.7-4.7
2018-Feb-18 14:00N 50°12' W 066°24'0 0.0 070 / 51016.7 -8.5-8.5
2018-Feb-18 13:00N 50°12' W 066°24'0 0.0 090 / 21016.6 -8.4-8.4
2018-Feb-18 12:00N 50°12' W 066°24'0 0.0 080 / 51016.4 -9.6-9.6
2018-Feb-18 11:00N 50°12' W 066°24'0 0.0 080 / 51016.2 -9.2-9.2
2018-Feb-18 10:00N 50°12' W 066°24'0 0.0 090 / 41016.2 -8.9-9.0
2018-Feb-18 09:00N 50°12' W 066°24'0 0.0 070 / 71016.4 -10.1-10.2
2018-Feb-18 08:00N 50°12' W 066°24'0 0.0 070 / 81016.9 -10.8-10.8
2018-Feb-18 07:00N 50°12' W 066°24'7 7.1 060 / 131017.7 -12.4-12.5 0.7
2018-Feb-18 06:00N 50°06' W 066°18'1313.0 110 / 161017.7 -8.1-8.2-0.1
2018-Feb-18 05:00N 50°00' W 066°36'8 7.7 120 / 171018.2 -8.2-8.4-0.3
2018-Feb-18 04:00N 50°00' W 066°48'0 0.0 040 / 71020.1 -12.1-12.2-0.2
2018-Feb-18 03:00N 50°00' W 066°48'0 0.0 070 / 51021.1 -12.5-12.7
2018-Feb-18 01:00N 50°00' W 066°48'0 0.0 060 / 41021.8 -12.5-13.0
2018-Feb-18 00:00N 50°00' W 066°48'0 0.0 040 / 21022.5 -12.2-13.2
2018-Feb-17 23:00N 50°00' W 066°48'0 0.0 010 / 11023.1 -11.4-12.3
2018-Feb-17 22:00N 50°00' W 066°48'0 0.0 270 / 21023.4 -9.9-10.9
2018-Feb-17 20:00N 50°00' W 066°48'0 0.0 260 / 31023.6 -9.3-10.1
2018-Feb-17 19:00N 50°00' W 066°48'0 0.0 200 / 11023.7 -10.8-13.0
2018-Feb-17 18:00N 50°00' W 066°48'0 0.0 180 / 11023.9 -11.2-13.4
2018-Feb-17 17:00N 50°00' W 066°48'0 0.0 270 / 11024.2 -12.6-14.8
2018-Feb-17 16:00N 50°00' W 066°48'0 0.0 290 / 51024.9 -15.3-18.2
2018-Feb-17 15:00N 50°00' W 066°48'0 0.0 290 / 61025.2 -16.8-19.3
2018-Feb-17 14:00N 50°00' W 066°48'0 0.0 260 / 31024.9 -16.4-17.8
2018-Feb-17 13:00N 50°00' W 066°48'0 0.0 250 / 41024.3 -17.2-17.3
2018-Feb-17 12:00N 50°00' W 066°48'0 0.0 260 / 31023.1 -19.1-19.7
2018-Feb-17 11:00N 50°00' W 066°48'0 0.0 250 / 31021.5 -17.6-18.5
2018-Feb-17 10:00N 50°00' W 066°48'0 0.0 260 / 51019.7 -17.6-18.2
2018-Feb-17 09:00N 50°00' W 066°48'6 6.0 300 / 91017.2 -19.0-21.8 0.1
2018-Feb-17 08:00N 49°54' W 066°48'0 0.0 310 / 151016.2 -17.6-20.5
2018-Feb-17 07:00N 49°54' W 066°48'0 0.0 300 / 151014.9 -16.5-19.1
2018-Feb-17 06:00N 49°54' W 066°48'0 0.0 320 / 141013.1 -15.9-18.1
2018-Feb-17 05:00N 49°54' W 066°48'0 0.0 310 / 241010.9 -15.0-16.5
2018-Feb-17 04:00N 49°54' W 066°48'0 0.0 310 / 181009.4 -14.0-14.9
2018-Feb-17 02:00N 49°54' W 066°48'0 0.0 320 / 131006.9 -12.2-12.3-0.1
2018-Feb-17 01:00N 49°54' W 066°48'7 7.1 330 / 231004.9 -10.4-10.8-0.1
2018-Feb-17 00:00N 49°48' W 066°54'1212.0 330 / 251002.7 -8.8-9.1-0.0
2018-Feb-16 23:00N 49°36' W 066°54'2914.3 310 / 231001.5 -6.6-6.7-0.0
2018-Feb-16 21:00N 49°12' W 067°18'1313.2 290 / 221001.4 -5.7-5.7 0.3
2018-Feb-16 20:00N 49°06' W 067°36'1313.2 300 / 181001.2 -5.1-5.2 0.2
2018-Feb-16 19:00N 49°00' W 067°54'2713.3 290 / 211000.5 -5.3-5.2 0.3
2018-Feb-16 17:00N 48°48' W 068°30'10 9.9 320 / 161000.5 -5.0-4.9 0.5
2018-Feb-16 16:00N 48°42' W 068°42'10 9.9 320 / 181000.4 -4.1-4.0 0.8
2018-Feb-16 15:00N 48°36' W 068°54'1716.9 320 / 171001.1 -3.9-3.8 0.9
2018-Feb-16 14:00N 48°24' W 069°12'1010.0 330 / 151002.5 -3.4-3.3 0.9
2018-Feb-16 13:00N 48°18' W 069°24'1414.4 280 / 231001.8 -4.0-3.8 1.2
2018-Feb-16 12:00N 48°06' W 069°36'1414.4 280 / 261001.5 -3.3-3.1 1.8
2018-Feb-16 11:00N 47°54' W 069°48'1312.7 320 / 15999.6 0.6 0.8 0.8
2018-Feb-16 10:00N 47°42' W 069°54'1414.5 320 / 13999.2 2.1 2.4 0.9
2018-Feb-16 09:00N 47°30' W 070°06'1413.6 330 / 7998.7 2.3 2.7 1.2
2018-Feb-16 08:00N 47°24' W 070°24'7 7.2 190 / 2998.0 2.9 3.4 1.0
2018-Feb-16 07:00N 47°18' W 070°30'1010.1 200 / 15997.8 4.3 4.9 1.0
2018-Feb-16 06:00N 47°12' W 070°42'1818.5 220 / 26998.0 3.3 3.8 1.3
2018-Feb-16 05:00N 46°54' W 070°48'17 8.7 220 / 15999.0 2.1 2.7 1.3
2018-Feb-16 03:00N 46°48' W 071°12'0 0.0 240 / 13999.1 2.2 2.8
2018-Feb-16 02:00N 46°48' W 071°12'0 0.0 230 / 12999.3 1.4 2.0
2018-Feb-16 01:00N 46°48' W 071°12'0 0.0 240 / 10999.3 1.7 2.4
2018-Feb-16 00:00N 46°48' W 071°12'0 0.0 250 / 17998.8 2.3 2.9
2018-Feb-15 22:00N 46°48' W 071°12'0 0.0 180 / 1998.5 1.2 1.7
2018-Feb-15 21:00N 46°48' W 071°12'0 0.0 999.5 1.8 2.3
2018-Feb-15 20:00N 46°48' W 071°12'0 0.0 1000.8 0.8 1.3
2018-Feb-15 19:00N 46°48' W 071°12'0 0.0 080 / 11001.9 1.7 2.1
2018-Feb-15 18:00N 46°48' W 071°12'0 0.0 040 / 41003.4 2.9 3.3
2018-Feb-15 17:00N 46°48' W 071°12'0 0.0 060 / 11005.8 0.9 1.4
2018-Feb-15 16:00N 46°48' W 071°12'0 0.0 1006.9 0.5 0.9
2018-Feb-15 15:00N 46°48' W 071°12'0 0.0 280 / 11008.4 0.4 0.8
2018-Feb-15 14:00N 46°48' W 071°12'0 0.0 210 / 11008.7 -0.5-0.0
2018-Feb-15 13:00N 46°48' W 071°12'0 0.0 260 / 21009.4 -1.6-1.2
2018-Feb-15 12:00N 46°48' W 071°12'0 0.0 170 / 11009.2 -1.9-1.5
2018-Feb-15 11:00N 46°48' W 071°12'0 0.0 150 / 31009.7 -1.4-1.0
2018-Feb-15 10:00N 46°48' W 071°12'0 0.0 210 / 21010.4 -2.1-1.7
2018-Feb-15 09:00N 46°48' W 071°12'0 0.0 230 / 31010.5 -1.9-1.5
2018-Feb-15 08:00N 46°48' W 071°12'0 0.0 1011.0 -1.0-0.6
2018-Feb-15 07:00N 46°48' W 071°12'0 0.0 1011.8 -0.4-0.1
2018-Feb-15 06:00N 46°48' W 071°12'0 0.0 230 / 41011.7 -0.1 0.3
2018-Feb-15 04:00N 46°48' W 071°12'0 0.0 240 / 41012.0 0.1 0.5
2018-Feb-15 03:00N 46°48' W 071°12'0 0.0 1011.8 0.3 0.7
2018-Feb-15 02:00N 46°48' W 071°12'0 0.0 240 / 31011.8 0.4 0.8
2018-Feb-15 01:00N 46°48' W 071°12'0 0.0 220 / 81011.5 1.5 1.8
2018-Feb-15 00:00N 46°48' W 071°12'0 0.0 220 / 91011.3 2.0 2.3
2018-Feb-14 23:00N 46°48' W 071°12'0 0.0 240 / 101011.6 2.4 2.7
2018-Feb-14 22:00N 46°48' W 071°12'0 0.0 240 / 101012.2 2.3 2.5
2018-Feb-14 21:00N 46°48' W 071°12'0 0.0 220 / 111012.3 0.6 0.9
2018-Feb-14 20:00N 46°48' W 071°12'0 0.0 210 / 71012.8 -1.2-1.0
2018-Feb-14 19:00N 46°48' W 071°12'0 0.0 220 / 61013.8 -2.1-1.9
2018-Feb-14 18:00N 46°48' W 071°12'0 0.0 220 / 101014.9 -3.4-3.3
2018-Feb-14 17:00N 46°48' W 071°12'0 0.0 210 / 91016.5 -4.6-4.5
2018-Feb-14 16:00N 46°48' W 071°12'0 0.0 230 / 91017.4 -5.8-5.7
2018-Feb-14 15:00N 46°48' W 071°12'0 0.0 200 / 51018.7 -7.0-7.0
2018-Feb-14 14:00N 46°48' W 071°12'0 0.0 210 / 51019.2 -8.9-9.0
2018-Feb-14 13:00N 46°48' W 071°12'0 0.0 220 / 41019.7 -10.0-10.0
2018-Feb-14 12:00N 46°48' W 071°12'0 0.0 190 / 21020.2 -10.4-10.4
2018-Feb-14 11:00N 46°48' W 071°12'0 0.0 220 / 51021.2 -10.0-10.0 1.6
2018-Feb-14 10:00N 46°48' W 071°12'0 0.0 250 / 21022.2 -9.9-9.9
2018-Feb-14 07:00N 46°48' W 071°12'0 0.0 260 / 21026.4 -9.6-9.6
2018-Feb-14 05:00N 46°48' W 071°12'0 0.0 280 / 21029.5 -8.9-8.9
2018-Feb-14 04:00N 46°48' W 071°12'4 4.1 290 / 41030.6 -8.2-8.3 1.5
2018-Feb-14 03:00N 46°48' W 071°06'1010.2 230 / 71031.5 -8.7-8.7 1.4
2018-Feb-14 02:00N 46°54' W 070°54'7 7.3 240 / 151032.6 -8.2-8.2 1.5
2018-Feb-14 01:00N 47°00' W 070°48'1514.5 250 / 181032.8 -7.7-7.7 1.5
2018-Feb-14 00:00N 47°12' W 070°36'7 7.3 230 / 201033.3 -7.2-7.2 1.1
2018-Feb-13 23:00N 47°18' W 070°30'1414.5 230 / 271033.7 -7.2-7.3 1.0
2018-Feb-13 22:00N 47°30' W 070°18'   230 / 221033.7 -7.5-7.6 1.0

Dump ship's entire track history